Time;durP1;ratioP1;P1;durP2;ratioP2;P2;SDS_P1;SDS_P2;PMS_P1;PMS_P2;Temp;Humidity;BMP_temperature;BMP_pressure;BME280_temperature;BME280_humidity;BME280_pressure;Samples;Min_cycle;Max_cycle;Signal;HPM_P1;HPM_P2
2021/01/05 00:00:54;;;;;;;20.23;11.25;;;2.00;70.50;;;;;;4984691;28;20255;-81
2021/01/05 00:03:21;;;;;;;18.02;11.15;;;2.00;70.50;;;;;;4987531;28;20220;-77
2021/01/05 00:05:55;;;;;;;20.25;11.18;;;2.00;71.60;;;;;;4983603;28;20216;-78
2021/01/05 00:08:21;;;;;;;23.10;10.55;;;1.90;70.70;;;;;;4983141;28;20224;-78
2021/01/05 00:10:48;;;;;;;17.48;9.93;;;1.90;71.10;;;;;;4983964;28;20217;-78
2021/01/05 00:13:17;;;;;;;21.63;11.25;;;1.90;71.90;;;;;;4986209;28;20216;-78
2021/01/05 00:15:45;;;;;;;18.27;10.82;;;1.90;72.50;;;;;;4985695;28;20274;-78
2021/01/05 00:18:11;;;;;;;23.30;11.60;;;2.00;71.70;;;;;;4994867;28;20237;-80
2021/01/05 00:20:47;;;;;;;23.60;11.90;;;2.00;71.60;;;;;;4982334;28;20221;-79
2021/01/05 00:23:27;;;;;;;21.15;11.02;;;1.90;71.10;;;;;;4987572;28;20201;-78
2021/01/05 00:25:53;;;;;;;19.05;11.02;;;1.90;71.30;;;;;;4981390;28;20201;-78
2021/01/05 00:28:31;;;;;;;18.52;10.70;;;2.00;72.00;;;;;;4981155;28;20244;-78
2021/01/05 00:30:58;;;;;;;19.13;10.90;;;2.00;71.80;;;;;;4983045;28;20224;-78
2021/01/05 00:33:25;;;;;;;18.60;11.15;;;2.00;71.50;;;;;;4981831;28;20213;-79
2021/01/05 00:35:51;;;;;;;22.63;10.90;;;2.00;71.30;;;;;;4982084;28;20259;-77
2021/01/05 00:38:18;;;;;;;21.20;11.63;;;2.00;71.70;;;;;;4990741;28;20213;-78
2021/01/05 00:40:44;;;;;;;18.83;11.02;;;2.00;72.90;;;;;;4990543;28;20221;-77
2021/01/05 00:43:10;;;;;;;20.08;11.80;;;2.00;72.10;;;;;;4986765;28;20304;-78
2021/01/05 00:45:38;;;;;;;19.58;11.48;;;1.90;72.90;;;;;;4978015;28;20259;-78
2021/01/05 00:48:07;;;;;;;21.40;12.00;;;1.90;73.40;;;;;;4977183;28;20905;-77
2021/01/05 00:50:34;;;;;;;24.10;12.95;;;2.00;73.70;;;;;;4979713;28;20201;-77
2021/01/05 00:53:00;;;;;;;20.77;11.60;;;2.00;73.70;;;;;;4977217;28;20209;-77
2021/01/05 00:55:27;;;;;;;24.95;12.27;;;2.00;73.40;;;;;;4976766;28;20241;-76
2021/01/05 00:57:53;;;;;;;19.30;11.23;;;2.00;73.00;;;;;;4975323;28;20231;-79
2021/01/05 01:00:23;;;;;;;19.77;12.52;;;1.90;73.30;;;;;;4975082;28;20596;-79
2021/01/05 01:02:49;;;;;;;25.00;13.50;;;1.90;74.30;;;;;;4975346;28;20209;-77
2021/01/05 01:05:17;;;;;;;21.42;12.45;;;1.90;74.60;;;;;;4975353;28;20216;-81
2021/01/05 01:07:43;;;;;;;25.02;11.90;;;1.90;74.70;;;;;;4974929;28;20229;-77
2021/01/05 01:10:11;;;;;;;22.40;12.10;;;1.90;74.70;;;;;;4975752;28;20229;-79
2021/01/05 01:12:37;;;;;;;24.33;13.00;;;1.90;75.00;;;;;;4974364;28;20769;-81
2021/01/05 01:15:13;;;;;;;23.00;13.52;;;1.90;75.10;;;;;;4974653;28;20308;-79
2021/01/05 01:17:47;;;;;;;27.05;13.20;;;1.90;74.80;;;;;;4976136;28;20206;-80
2021/01/05 01:20:17;;;;;;;20.77;11.65;;;2.00;75.40;;;;;;4983666;28;20715;-77
2021/01/05 01:22:52;;;;;;;26.25;13.63;;;2.00;75.10;;;;;;4984446;28;20249;-78
2021/01/05 01:25:19;;;;;;;21.90;12.48;;;1.90;76.10;;;;;;4988642;28;20236;-78
2021/01/05 01:27:59;;;;;;;27.73;14.50;;;2.00;77.00;;;;;;4983958;28;20236;-78
2021/01/05 01:30:26;;;;;;;25.98;13.50;;;1.90;77.10;;;;;;4980275;28;20204;-77
2021/01/05 01:32:53;;;;;;;22.67;13.27;;;2.00;77.50;;;;;;4982164;28;20293;-79
2021/01/05 01:35:19;;;;;;;23.67;13.20;;;2.00;77.20;;;;;;4975311;28;20553;-77
2021/01/05 01:37:47;;;;;;;27.20;13.93;;;2.00;77.30;;;;;;4978209;28;20204;-78
2021/01/05 01:40:14;;;;;;;26.35;13.35;;;2.00;77.90;;;;;;4977149;28;20328;-77
2021/01/05 01:42:41;;;;;;;24.33;13.60;;;1.90;78.80;;;;;;4976271;28;20689;-77
2021/01/05 01:45:09;;;;;;;24.58;13.57;;;2.00;78.90;;;;;;4979611;28;20273;-78
2021/01/05 01:47:37;;;;;;;27.38;13.65;;;1.90;78.80;;;;;;4977108;28;20231;-77
2021/01/05 01:50:07;;;;;;;24.38;14.85;;;2.00;78.60;;;;;;4976029;28;20587;-77
2021/01/05 01:52:55;;;;;;;26.65;14.30;;;2.00;79.50;;;;;;4981155;28;20205;-77
2021/01/05 01:55:34;;;;;;;25.38;15.07;;;2.10;77.90;;;;;;4974894;28;20228;-77
2021/01/05 01:58:36;;;;;;;22.95;14.35;;;2.00;77.70;;;;;;4976937;28;20204;-77
2021/01/05 02:01:44;;;;;;;24.70;13.60;;;2.10;77.40;;;;;;4975048;28;20232;-77
2021/01/05 02:04:44;;;;;;;23.02;13.80;;;2.00;77.00;;;;;;4972014;28;20201;-77
2021/01/05 02:07:44;;;;;;;27.35;13.00;;;2.00;78.30;;;;;;4978358;28;20233;-77
2021/01/05 02:10:21;;;;;;;26.55;12.93;;;1.90;78.80;;;;;;4955740;28;20261;-76
2021/01/05 02:13:11;;;;;;;23.33;13.05;;;2.00;78.90;;;;;;4965191;28;20759;-77
2021/01/05 02:15:45;;;;;;;21.08;11.70;;;2.00;78.90;;;;;;4969246;28;20292;-76
2021/01/05 02:18:33;;;;;;;26.75;14.52;;;2.00;78.90;;;;;;4974449;28;20213;-77
2021/01/05 02:21:03;;;;;;;20.48;13.07;;;1.90;78.80;;;;;;4986563;28;20266;-76
2021/01/05 02:23:42;;;;;;;28.48;13.60;;;2.00;78.90;;;;;;4981509;28;20209;-77
2021/01/05 02:26:15;;;;;;;22.33;13.20;;;2.10;79.00;;;;;;4976052;28;20293;-76
2021/01/05 02:28:46;;;;;;;22.98;12.68;;;2.10;78.80;;;;;;4977155;28;20225;-77
2021/01/05 02:31:21;;;;;;;21.50;12.95;;;2.10;79.00;;;;;;4979488;28;20229;-77
2021/01/05 02:33:57;;;;;;;22.52;12.82;;;2.20;79.00;;;;;;4976470;28;20339;-77
2021/01/05 02:37:01;;;;;;;24.27;13.60;;;2.30;78.30;;;;;;4979414;28;20270;-77
2021/01/05 02:40:18;;;;;;;25.40;15.13;;;2.10;77.30;;;;;;4957301;28;20232;-77
2021/01/05 02:43:15;;;;;;;22.40;12.93;;;2.10;79.00;;;;;;4990545;28;20225;-77
2021/01/05 02:45:49;;;;;;;36.42;15.45;;;2.20;78.70;;;;;;4985778;28;20259;-77
2021/01/05 02:48:43;;;;;;;23.73;13.73;;;2.00;78.90;;;;;;4989199;28;20196;-77
2021/01/05 02:51:31;;;;;;;22.48;13.10;;;2.00;78.90;;;;;;4980225;28;20292;-77
2021/01/05 02:54:42;;;;;;;24.13;13.90;;;2.00;78.90;;;;;;4974412;28;20312;-76
2021/01/05 02:57:19;;;;;;;23.00;13.40;;;2.10;79.00;;;;;;4973331;28;20216;-77
2021/01/05 03:00:23;;;;;;;24.13;14.00;;;2.20;79.00;;;;;;4975168;28;20260;-77
2021/01/05 03:03:31;;;;;;;28.27;14.43;;;2.00;78.90;;;;;;4956052;28;20289;-77
2021/01/05 03:06:34;;;;;;;22.83;13.63;;;2.00;78.90;;;;;;4962781;28;20308;-76
2021/01/05 03:09:23;;;;;;;24.42;14.85;;;2.00;78.90;;;;;;4973696;28;20320;-76
2021/01/05 03:12:07;;;;;;;29.95;16.67;;;2.00;78.90;;;;;;4973780;28;20617;-77
2021/01/05 03:14:42;;;;;;;26.08;14.82;;;2.10;79.00;;;;;;4973863;28;20288;-77
2021/01/05 03:17:20;;;;;;;23.98;13.73;;;2.00;78.90;;;;;;4973342;28;20630;-77
2021/01/05 03:19:57;;;;;;;26.15;14.18;;;2.10;79.00;;;;;;5003610;23;20267;-80
2021/01/05 03:22:28;;;;;;;25.75;14.73;;;2.10;79.00;;;;;;4993362;28;20193;-78
2021/01/05 03:24:57;;;;;;;28.60;14.95;;;2.20;79.00;;;;;;4994407;28;20192;-79
2021/01/05 03:27:24;;;;;;;26.00;14.93;;;2.20;79.00;;;;;;4994426;28;20229;-79
2021/01/05 03:29:54;;;;;;;25.42;14.30;;;2.20;79.00;;;;;;4997108;28;20263;-76
2021/01/05 03:32:22;;;;;;;25.92;14.50;;;2.30;79.10;;;;;;4992066;28;20182;-78
2021/01/05 03:34:49;;;;;;;20.85;13.20;;;2.30;79.10;;;;;;4984219;28;20209;-78
2021/01/05 03:37:19;;;;;;;26.70;15.35;;;2.20;79.00;;;;;;4995686;28;20619;-79
2021/01/05 03:39:46;;;;;;;22.77;13.77;;;2.20;79.50;;;;;;4994205;28;20232;-79
2021/01/05 03:42:12;;;;;;;26.08;15.02;;;2.20;79.80;;;;;;4994704;28;20252;-79
2021/01/05 03:44:39;;;;;;;26.98;15.13;;;2.10;80.20;;;;;;4996803;28;20201;-79
2021/01/05 03:47:07;;;;;;;31.02;15.82;;;2.10;81.80;;;;;;4990382;28;20217;-78
2021/01/05 03:49:35;;;;;;;26.08;13.50;;;2.00;82.40;;;;;;4983390;28;20598;-78
2021/01/05 03:52:02;;;;;;;24.63;13.85;;;2.10;82.40;;;;;;4984889;28;20684;-79
2021/01/05 03:54:29;;;;;;;26.70;15.40;;;2.10;82.40;;;;;;4985305;28;20216;-78
2021/01/05 03:56:55;;;;;;;28.05;15.38;;;2.20;82.50;;;;;;4985609;28;20202;-79
2021/01/05 03:59:22;;;;;;;26.27;14.50;;;2.20;82.00;;;;;;4987849;28;20781;-79
2021/01/05 04:01:52;;;;;;;21.50;13.65;;;2.20;82.90;;;;;;4982390;28;20212;-78
2021/01/05 04:04:19;;;;;;;20.88;12.50;;;2.30;81.70;;;;;;4981692;28;20209;-79
2021/01/05 04:06:48;;;;;;;26.38;14.60;;;2.30;81.40;;;;;;4987230;28;20232;-79
2021/01/05 04:09:17;;;;;;;24.35;14.50;;;2.30;81.00;;;;;;4995344;28;20260;-79
2021/01/05 04:11:43;;;;;;;22.80;14.05;;;2.20;82.00;;;;;;4994313;28;20209;-79
2021/01/05 04:14:10;;;;;;;25.10;14.02;;;2.20;83.10;;;;;;4994031;28;20224;-78
2021/01/05 04:16:37;;;;;;;25.65;14.45;;;2.20;83.50;;;;;;4991935;28;20220;-78
2021/01/05 04:19:04;;;;;;;31.33;14.40;;;2.20;83.80;;;;;;4991216;28;20276;-78
2021/01/05 04:21:30;;;;;;;25.33;15.77;;;2.30;83.40;;;;;;4988848;28;20697;-78
2021/01/05 04:23:59;;;;;;;26.80;15.43;;;2.30;83.30;;;;;;4987616;28;20217;-78
2021/01/05 04:26:27;;;;;;;27.67;15.75;;;2.30;83.90;;;;;;4989603;28;20225;-79
2021/01/05 04:28:53;;;;;;;27.80;14.70;;;2.20;84.70;;;;;;4990387;28;20241;-79
2021/01/05 04:31:20;;;;;;;24.30;13.68;;;2.10;85.00;;;;;;4986595;28;20241;-78
2021/01/05 04:33:47;;;;;;;23.65;14.55;;;2.20;85.70;;;;;;4979035;28;20216;-79
2021/01/05 04:36:13;;;;;;;26.23;16.60;;;2.40;86.10;;;;;;4983959;28;20300;-79
2021/01/05 04:38:40;;;;;;;25.27;14.82;;;2.40;84.80;;;;;;4984138;28;20708;-78
2021/01/05 04:41:16;;;;;;;28.95;15.80;;;2.30;84.80;;;;;;4985653;28;20626;-77
2021/01/05 04:43:51;;;;;;;26.90;14.40;;;2.30;85.20;;;;;;4982267;28;20631;-77
2021/01/05 04:46:42;;;;;;;25.80;14.55;;;2.30;86.30;;;;;;4980267;28;20251;-77
2021/01/05 04:49:57;;;;;;;28.10;14.57;;;2.30;86.50;;;;;;4978809;28;20277;-77
2021/01/05 04:52:30;;;;;;;27.55;15.00;;;2.30;87.30;;;;;;4979206;28;20228;-77
2021/01/05 04:55:01;;;;;;;25.05;15.10;;;2.30;87.40;;;;;;4979631;28;20209;-77
2021/01/05 04:57:35;;;;;;;25.27;14.80;;;2.30;87.30;;;;;;4983049;28;20190;-78
2021/01/05 05:00:14;;;;;;;23.70;14.48;;;2.30;87.40;;;;;;4999615;28;20260;-79
2021/01/05 05:02:58;;;;;;;23.98;14.43;;;2.30;87.30;;;;;;4999919;28;20221;-77
2021/01/05 05:06:01;;;;;;;26.20;15.27;;;2.40;87.50;;;;;;4994830;28;20209;-78
2021/01/05 05:08:37;;;;;;;23.52;15.20;;;2.40;87.40;;;;;;4980739;28;20216;-77
2021/01/05 05:11:07;;;;;;;30.30;16.05;;;2.20;87.20;;;;;;4978633;28;20765;-80
2021/01/05 05:13:45;;;;;;;24.10;14.15;;;2.20;88.50;;;;;;4977250;28;20201;-79
2021/01/05 05:16:33;;;;;;;25.65;15.48;;;2.30;88.60;;;;;;4977116;28;20209;-79
2021/01/05 05:19:14;;;;;;;24.65;15.93;;;2.20;88.80;;;;;;4978794;28;20260;-81
2021/01/05 05:21:48;;;;;;;30.23;14.52;;;2.20;90.30;;;;;;4977430;28;20617;-80
2021/01/05 05:24:25;;;;;;;27.15;15.80;;;2.20;90.50;;;;;;4978813;28;20578;-79
2021/01/05 05:26:58;;;;;;;26.05;14.52;;;2.30;90.50;;;;;;4976761;28;20329;-80
2021/01/05 05:29:41;;;;;;;23.15;14.93;;;2.20;90.50;;;;;;4977764;28;20304;-81
2021/01/05 05:32:18;;;;;;;24.27;13.48;;;2.20;90.90;;;;;;4983725;28;20213;-78
2021/01/05 05:34:53;;;;;;;27.33;15.52;;;2.30;90.60;;;;;;4992669;28;20209;-78
2021/01/05 05:37:37;;;;;;;23.08;14.32;;;2.30;90.50;;;;;;4987694;28;20243;-79
2021/01/05 05:40:31;;;;;;;24.00;13.90;;;2.20;90.50;;;;;;4966257;28;20236;-80
2021/01/05 05:43:23;;;;;;;21.33;13.20;;;2.20;91.00;;;;;;4974711;28;20235;-80
2021/01/05 05:45:55;;;;;;;21.90;13.70;;;2.20;91.20;;;;;;4971724;28;20244;-77
2021/01/05 05:48:39;;;;;;;22.42;14.10;;;2.20;91.20;;;;;;4986926;28;20222;-81
2021/01/05 05:51:11;;;;;;;23.17;14.70;;;2.20;91.10;;;;;;4986940;28;20192;-80
2021/01/05 05:53:44;;;;;;;26.67;14.23;;;2.30;91.40;;;;;;4985567;28;20313;-80
2021/01/05 05:56:13;;;;;;;20.30;13.52;;;2.30;91.20;;;;;;4990727;28;20198;-80
2021/01/05 05:58:42;;;;;;;20.13;12.90;;;2.30;91.30;;;;;;4994575;28;20312;-78
2021/01/05 06:01:13;;;;;;;20.30;12.10;;;2.40;91.10;;;;;;4992032;28;20198;-78
2021/01/05 06:03:39;;;;;;;21.70;12.95;;;2.30;90.90;;;;;;4993569;28;20213;-80
2021/01/05 06:06:06;;;;;;;22.17;14.30;;;2.40;90.90;;;;;;4984702;28;20208;-79
2021/01/05 06:08:32;;;;;;;23.20;13.70;;;2.20;90.80;;;;;;4983782;28;20235;-79
2021/01/05 06:10:59;;;;;;;19.52;12.95;;;2.30;90.90;;;;;;4988656;28;20216;-79
2021/01/05 06:13:25;;;;;;;24.52;13.27;;;2.30;90.60;;;;;;4988634;28;20268;-79
2021/01/05 06:15:52;;;;;;;24.60;14.07;;;2.30;90.60;;;;;;4988710;28;20233;-78
2021/01/05 06:18:19;;;;;;;23.67;14.52;;;2.30;90.80;;;;;;4992428;28;20589;-79
2021/01/05 06:20:46;;;;;;;19.02;12.27;;;2.30;91.10;;;;;;4991835;28;20208;-79
2021/01/05 06:23:13;;;;;;;19.98;12.75;;;2.30;91.30;;;;;;4990730;28;20607;-79
2021/01/05 06:25:40;;;;;;;20.33;13.05;;;2.30;91.20;;;;;;4994211;28;20216;-77
2021/01/05 06:28:07;;;;;;;22.52;13.43;;;2.30;91.50;;;;;;4989674;28;20225;-79
2021/01/05 06:30:33;;;;;;;22.38;14.48;;;2.30;91.50;;;;;;4995314;28;20732;-76
2021/01/05 06:33:00;;;;;;;24.48;14.35;;;2.40;91.60;;;;;;4995957;28;20221;-80
2021/01/05 06:35:27;;;;;;;21.95;13.35;;;2.50;91.50;;;;;;4993603;28;20213;-80
2021/01/05 06:37:54;;;;;;;22.55;12.98;;;2.60;91.30;;;;;;4990372;28;20269;-79
2021/01/05 06:40:23;;;;;;;21.08;12.65;;;2.50;90.80;;;;;;4989168;28;20237;-78
2021/01/05 06:42:50;;;;;;;21.77;12.90;;;2.40;90.90;;;;;;4985957;28;20210;-78
2021/01/05 06:45:26;;;;;;;22.27;12.88;;;2.50;91.00;;;;;;4988173;28;20216;-79
2021/01/05 06:47:54;;;;;;;20.00;12.65;;;2.50;90.70;;;;;;4990594;28;20228;-78
2021/01/05 06:50:23;;;;;;;22.05;13.35;;;2.50;90.90;;;;;;4992831;28;20225;-80
2021/01/05 06:52:50;;;;;;;21.38;12.65;;;2.50;90.80;;;;;;4990423;28;20233;-81
2021/01/05 06:55:17;;;;;;;18.20;10.95;;;2.50;90.70;;;;;;4981976;28;20209;-80
2021/01/05 06:57:44;;;;;;;18.33;11.93;;;2.50;90.70;;;;;;4979752;28;20213;-79
2021/01/05 07:00:15;;;;;;;21.30;12.68;;;2.50;90.70;;;;;;4991132;28;20236;-77
2021/01/05 07:02:42;;;;;;;19.05;13.18;;;2.50;90.90;;;;;;4992865;28;20265;-79
2021/01/05 07:05:09;;;;;;;20.42;12.35;;;2.40;90.70;;;;;;4986656;28;20739;-80
2021/01/05 07:07:36;;;;;;;17.75;12.20;;;2.50;90.70;;;;;;4978716;28;20775;-80
2021/01/05 07:10:06;;;;;;;16.23;10.90;;;2.50;90.70;;;;;;4978928;28;20225;-79
2021/01/05 07:12:33;;;;;;;18.83;11.13;;;2.60;90.70;;;;;;4980369;28;20198;-79
2021/01/05 07:15:00;;;;;;;18.13;11.23;;;2.60;90.50;;;;;;4978869;28;20209;-79
2021/01/05 07:17:26;;;;;;;18.13;11.75;;;2.60;91.00;;;;;;4978879;28;20611;-78
2021/01/05 07:19:53;;;;;;;19.60;11.85;;;2.60;90.20;;;;;;4979291;28;20269;-81
2021/01/05 07:22:19;;;;;;;15.90;10.52;;;2.70;89.30;;;;;;4979191;28;20237;-80
2021/01/05 07:24:45;;;;;;;14.90;10.68;;;2.60;88.80;;;;;;4981937;28;20272;-80
2021/01/05 07:27:13;;;;;;;18.23;11.77;;;2.60;88.10;;;;;;4982773;28;20240;-81
2021/01/05 07:29:39;;;;;;;17.40;10.27;;;2.60;87.70;;;;;;4990504;28;20256;-77
2021/01/05 07:32:06;;;;;;;17.23;12.13;;;2.50;87.50;;;;;;5012051;28;20413;-80
2021/01/05 07:34:37;;;;;;;18.90;11.30;;;2.50;87.60;;;;;;5007750;28;20232;-79
2021/01/05 07:37:06;;;;;;;16.77;11.15;;;2.60;87.90;;;;;;4978618;28;20217;-79
2021/01/05 07:39:34;;;;;;;15.95;11.18;;;2.50;87.80;;;;;;4979421;28;20272;-80
2021/01/05 07:42:15;;;;;;;16.15;10.57;;;2.60;87.60;;;;;;4978204;28;20217;-80
2021/01/05 07:44:42;;;;;;;17.00;10.95;;;2.50;88.10;;;;;;4979087;28;20277;-80
2021/01/05 07:47:13;;;;;;;16.95;11.85;;;2.70;87.70;;;;;;4979022;28;20225;-82
2021/01/05 07:49:44;;;;;;;14.35;10.52;;;2.50;87.50;;;;;;4982954;28;20237;-76
2021/01/05 07:52:24;;;;;;;19.92;11.68;;;2.50;87.50;;;;;;4988312;28;20224;-78
2021/01/05 07:54:51;;;;;;;15.95;10.95;;;2.50;87.60;;;;;;4995794;28;20182;-78
2021/01/05 07:57:21;;;;;;;20.05;12.35;;;2.50;87.50;;;;;;4998099;28;20204;-76
2021/01/05 07:59:47;;;;;;;19.02;11.70;;;2.50;88.20;;;;;;4996747;28;20257;-76
2021/01/05 08:02:14;;;;;;;21.48;13.68;;;2.50;88.40;;;;;;4997638;28;20256;-79
2021/01/05 08:04:43;;;;;;;19.60;11.15;;;2.50;88.40;;;;;;4998353;28;20202;-77
2021/01/05 08:07:10;;;;;;;18.80;12.35;;;2.50;87.90;;;;;;4998325;28;20213;-76
2021/01/05 08:09:45;;;;;;;20.10;12.82;;;2.60;87.80;;;;;;5009584;28;20213;-78
2021/01/05 08:12:14;;;;;;;21.25;11.30;;;2.60;87.90;;;;;;5020705;28;20211;-75
2021/01/05 08:14:42;;;;;;;20.63;12.43;;;2.60;87.60;;;;;;5020262;28;20208;-78
2021/01/05 08:17:09;;;;;;;19.17;11.63;;;2.60;87.60;;;;;;4995798;28;20256;-77
2021/01/05 08:19:36;;;;;;;19.92;13.00;;;2.60;87.60;;;;;;4998023;28;20260;-78
2021/01/05 08:22:02;;;;;;;14.98;10.07;;;2.60;87.80;;;;;;4996210;28;20209;-78
2021/01/05 08:24:29;;;;;;;19.83;10.15;;;2.50;87.70;;;;;;4973609;28;20297;-80
2021/01/05 08:26:55;;;;;;;19.92;12.30;;;2.60;88.10;;;;;;4992225;28;20268;-78
2021/01/05 08:29:22;;;;;;;21.02;12.90;;;2.60;87.60;;;;;;4989234;28;20230;-80
2021/01/05 08:31:49;;;;;;;18.05;12.25;;;2.50;87.50;;;;;;4983883;28;20240;-78
2021/01/05 08:34:17;;;;;;;21.95;11.60;;;2.50;87.80;;;;;;4981737;28;20678;-78
2021/01/05 08:36:43;;;;;;;20.98;12.25;;;2.50;88.80;;;;;;4962849;28;20197;-79
2021/01/05 08:39:13;;;;;;;18.35;12.02;;;2.50;89.20;;;;;;4972671;28;20232;-80
2021/01/05 08:41:39;;;;;;;16.75;11.18;;;2.60;89.30;;;;;;4982418;28;20212;-79
2021/01/05 08:44:06;;;;;;;18.55;10.45;;;2.60;89.10;;;;;;4995459;28;20291;-76
2021/01/05 08:46:33;;;;;;;16.80;10.95;;;2.50;89.70;;;;;;4988811;28;20221;-77
2021/01/05 08:49:01;;;;;;;19.50;11.13;;;2.50;89.00;;;;;;4987848;28;20233;-80
2021/01/05 08:51:28;;;;;;;17.67;11.23;;;2.50;89.30;;;;;;4988666;28;20213;-77
2021/01/05 08:54:07;;;;;;;19.00;12.48;;;2.60;89.00;;;;;;4984008;28;20201;-78
2021/01/05 08:56:48;;;;;;;22.60;11.30;;;2.60;88.80;;;;;;4982592;28;20231;-76
2021/01/05 08:59:14;;;;;;;17.35;10.80;;;2.60;87.60;;;;;;4981152;28;20258;-81
2021/01/05 09:01:41;;;;;;;16.88;11.55;;;2.70;87.70;;;;;;4980696;28;20240;-78
2021/01/05 09:04:08;;;;;;;17.23;10.80;;;2.70;87.70;;;;;;4979465;28;20289;-78
2021/01/05 09:06:34;;;;;;;16.45;11.35;;;2.70;87.70;;;;;;4979289;28;20289;-77
2021/01/05 09:09:01;;;;;;;19.98;10.90;;;2.60;87.60;;;;;;4980565;28;20275;-78
2021/01/05 09:11:28;;;;;;;21.20;11.90;;;2.70;87.70;;;;;;4984583;28;20236;-79
2021/01/05 09:13:55;;;;;;;24.25;14.48;;;2.70;87.70;;;;;;4982263;28;20291;-80
2021/01/05 09:16:23;;;;;;;22.90;13.23;;;2.60;87.60;;;;;;4982148;28;20209;-78
2021/01/05 09:18:51;;;;;;;20.67;13.13;;;2.60;87.60;;;;;;4982054;28;20316;-78
2021/01/05 09:21:22;;;;;;;21.23;13.18;;;2.70;87.70;;;;;;4980007;28;20197;-77
2021/01/05 09:23:51;;;;;;;20.33;12.50;;;2.60;87.60;;;;;;4981187;28;20209;-77
2021/01/05 09:26:19;;;;;;;16.60;11.80;;;2.70;88.20;;;;;;4982957;28;20495;-80
2021/01/05 09:28:46;;;;;;;18.35;11.93;;;2.80;88.50;;;;;;4981036;28;20237;-80
2021/01/05 09:31:12;;;;;;;18.70;11.30;;;2.70;87.70;;;;;;4980802;28;20708;-79
2021/01/05 09:33:40;;;;;;;22.05;13.43;;;2.70;87.70;;;;;;4980926;28;20248;-79
2021/01/05 09:36:14;;;;;;;17.25;11.77;;;2.80;87.80;;;;;;4986272;28;20214;-78
2021/01/05 09:38:44;;;;;;;20.20;11.73;;;2.80;86.40;;;;;;4975938;28;20217;-76
2021/01/05 09:41:25;;;;;;;18.90;11.70;;;2.80;85.70;;;;;;4995819;28;20241;-77
2021/01/05 09:44:03;;;;;;;18.35;12.05;;;2.80;85.20;;;;;;4997475;28;20209;-77
2021/01/05 09:46:32;;;;;;;18.33;11.80;;;2.80;86.00;;;;;;4999159;28;20269;-78
2021/01/05 09:49:03;;;;;;;20.48;12.35;;;2.70;87.00;;;;;;4990804;28;20232;-76
2021/01/05 09:51:34;;;;;;;17.65;11.25;;;2.70;87.70;;;;;;4989197;28;20222;-76
2021/01/05 09:54:04;;;;;;;18.38;12.55;;;2.70;87.70;;;;;;4999152;28;20216;-81
2021/01/05 09:56:34;;;;;;;19.45;12.93;;;2.70;87.70;;;;;;5000086;28;20217;-78
2021/01/05 09:59:05;;;;;;;18.67;11.05;;;2.70;88.40;;;;;;4999330;28;20288;-76
2021/01/05 10:01:55;;;;;;;17.05;10.07;;;2.80;88.80;;;;;;4998216;28;20225;-76
2021/01/05 10:04:25;;;;;;;19.95;11.23;;;2.90;87.80;;;;;;4995449;28;20214;-77
2021/01/05 10:06:53;;;;;;;19.75;11.40;;;2.90;86.70;;;;;;4993165;28;20238;-76
2021/01/05 10:09:25;;;;;;;20.52;12.00;;;2.90;85.60;;;;;;4983317;28;20229;-77
2021/01/05 10:11:55;;;;;;;21.35;12.70;;;2.80;85.40;;;;;;4981804;28;20216;-78
2021/01/05 10:14:29;;;;;;;19.38;12.25;;;2.80;87.00;;;;;;4991147;28;20289;-77
2021/01/05 10:16:57;;;;;;;16.85;10.98;;;2.80;87.00;;;;;;4990590;28;20217;-78
2021/01/05 10:19:25;;;;;;;19.70;12.70;;;2.80;87.50;;;;;;4990670;28;20302;-78
2021/01/05 10:21:52;;;;;;;19.30;12.15;;;2.90;87.80;;;;;;4984619;28;20213;-77
2021/01/05 10:24:19;;;;;;;19.45;11.98;;;2.90;87.80;;;;;;4984885;28;20221;-78
2021/01/05 10:26:51;;;;;;;22.27;12.00;;;2.90;87.80;;;;;;4982888;28;20213;-81
2021/01/05 10:29:18;;;;;;;18.60;12.35;;;2.90;87.80;;;;;;4984921;28;20230;-78
2021/01/05 10:31:45;;;;;;;17.13;11.95;;;2.90;87.80;;;;;;4986184;28;20228;-78
2021/01/05 10:34:13;;;;;;;19.90;11.32;;;2.90;87.80;;;;;;4985652;28;20220;-79
2021/01/05 10:36:39;;;;;;;19.15;12.35;;;2.90;87.80;;;;;;4987739;28;20202;-80
2021/01/05 10:39:08;;;;;;;20.25;11.90;;;2.90;87.40;;;;;;4988812;28;20296;-79
2021/01/05 10:41:39;;;;;;;20.67;12.02;;;2.90;87.50;;;;;;4988237;28;20212;-76
2021/01/05 10:44:07;;;;;;;24.95;12.82;;;2.90;87.40;;;;;;4984611;28;20646;-77
2021/01/05 10:46:34;;;;;;;23.35;13.30;;;2.80;88.40;;;;;;4980329;28;20263;-78
2021/01/05 10:49:01;;;;;;;21.15;12.75;;;2.80;88.90;;;;;;4980523;28;20229;-78
2021/01/05 10:51:27;;;;;;;25.88;14.63;;;2.80;87.80;;;;;;4982063;28;20696;-79
2021/01/05 10:53:54;;;;;;;19.90;13.05;;;2.90;88.50;;;;;;4982389;28;20672;-79
2021/01/05 10:56:24;;;;;;;23.15;12.80;;;2.90;89.60;;;;;;4981769;28;20213;-78
2021/01/05 10:58:50;;;;;;;21.33;13.93;;;3.00;89.80;;;;;;4980593;28;20296;-80
2021/01/05 11:01:18;;;;;;;20.35;12.80;;;3.00;89.60;;;;;;4980201;28;20212;-81
2021/01/05 11:03:44;;;;;;;18.20;12.23;;;3.00;89.90;;;;;;4979522;28;20205;-79
2021/01/05 11:06:11;;;;;;;16.35;11.90;;;2.90;89.50;;;;;;4980998;28;20714;-79
2021/01/05 11:08:38;;;;;;;17.15;11.80;;;2.90;89.60;;;;;;4984117;28;20288;-79
2021/01/05 11:11:05;;;;;;;19.63;12.05;;;3.00;89.90;;;;;;4987529;28;20205;-79
2021/01/05 11:13:33;;;;;;;18.23;12.50;;;2.90;89.20;;;;;;4988093;28;20206;-80
2021/01/05 11:15:59;;;;;;;19.25;12.10;;;2.90;89.50;;;;;;4994880;28;20241;-80
2021/01/05 11:18:26;;;;;;;16.92;11.73;;;2.90;89.90;;;;;;4994098;28;20189;-77
2021/01/05 11:20:53;;;;;;;18.63;11.88;;;2.90;89.70;;;;;;4996220;28;20220;-79
2021/01/05 11:23:19;;;;;;;17.85;11.48;;;2.80;90.00;;;;;;4995244;28;20658;-78
2021/01/05 11:25:46;;;;;;;20.73;12.05;;;2.90;90.00;;;;;;4993415;28;20213;-78
2021/01/05 11:28:12;;;;;;;21.23;12.48;;;2.90;90.40;;;;;;4990310;28;20232;-79
2021/01/05 11:30:39;;;;;;;23.02;12.98;;;2.90;90.40;;;;;;4989936;28;20229;-81
2021/01/05 11:33:06;;;;;;;18.30;12.38;;;2.90;90.40;;;;;;4990892;28;20208;-79
2021/01/05 11:35:33;;;;;;;18.67;11.50;;;2.90;90.20;;;;;;4988320;28;20209;-79
2021/01/05 11:38:00;;;;;;;19.85;12.27;;;3.00;90.30;;;;;;4984652;28;20202;-79
2021/01/05 11:40:27;;;;;;;19.17;12.90;;;3.10;90.30;;;;;;4971527;28;20229;-78
2021/01/05 11:42:54;;;;;;;17.95;10.50;;;3.00;89.80;;;;;;4964623;28;20242;-80
2021/01/05 11:45:20;;;;;;;18.27;12.65;;;3.00;89.80;;;;;;4967652;28;20205;-78
2021/01/05 11:47:49;;;;;;;21.65;12.18;;;3.00;90.00;;;;;;4985406;28;20259;-79
2021/01/05 11:50:16;;;;;;;18.80;11.73;;;3.00;89.40;;;;;;4987005;28;20614;-80
2021/01/05 11:52:43;;;;;;;21.42;12.38;;;2.90;90.10;;;;;;4993262;28;20221;-78
2021/01/05 11:55:11;;;;;;;18.17;12.00;;;2.90;90.30;;;;;;4987148;28;20650;-79
2021/01/05 11:57:37;;;;;;;19.88;12.10;;;2.90;90.80;;;;;;4977795;28;20573;-78
2021/01/05 12:00:07;;;;;;;19.42;12.90;;;2.80;90.40;;;;;;4967115;28;20241;-77
2021/01/05 12:02:34;;;;;;;19.55;12.80;;;2.80;90.60;;;;;;4973790;28;20209;-77
2021/01/05 12:05:00;;;;;;;18.60;12.35;;;2.90;90.80;;;;;;4989969;28;20228;-79
2021/01/05 12:07:27;;;;;;;21.50;11.45;;;2.90;90.80;;;;;;4991825;28;20685;-81
2021/01/05 12:09:54;;;;;;;17.65;11.95;;;3.00;90.50;;;;;;4988396;28;20229;-82
2021/01/05 12:12:21;;;;;;;18.27;12.75;;;3.00;90.80;;;;;;4991118;28;20198;-78
2021/01/05 12:14:49;;;;;;;21.38;12.85;;;3.00;90.80;;;;;;4988836;28;20229;-77
2021/01/05 12:17:15;;;;;;;20.95;12.75;;;3.00;90.80;;;;;;4943305;28;20610;-80
2021/01/05 12:19:43;;;;;;;18.83;11.90;;;3.00;91.00;;;;;;4946409;29;20309;-80
2021/01/05 12:22:11;;;;;;;21.77;13.25;;;3.10;91.20;;;;;;4948906;29;20215;-79
2021/01/05 12:24:41;;;;;;;18.92;11.60;;;3.20;91.00;;;;;;4952462;29;20218;-78
2021/01/05 12:27:12;;;;;;;25.83;12.32;;;3.30;90.90;;;;;;4955086;29;20238;-79
2021/01/05 12:29:42;;;;;;;19.85;12.30;;;3.30;90.40;;;;;;4964968;28;20310;-78
2021/01/05 12:32:10;;;;;;;20.90;12.32;;;3.30;90.20;;;;;;4963358;29;20575;-79
2021/01/05 12:34:39;;;;;;;18.55;11.85;;;3.40;90.00;;;;;;4944299;29;20214;-80
2021/01/05 12:37:08;;;;;;;17.63;11.30;;;3.40;88.40;;;;;;4943211;29;20223;-80
2021/01/05 12:39:35;;;;;;;18.30;12.13;;;3.40;88.30;;;;;;4942643;29;20230;-79
2021/01/05 12:42:07;;;;;;;17.80;11.15;;;3.50;87.30;;;;;;4938589;29;20215;-80
2021/01/05 12:44:34;;;;;;;19.33;11.80;;;3.50;85.80;;;;;;4937826;29;20663;-79
2021/01/05 12:47:01;;;;;;;18.48;11.43;;;3.50;85.30;;;;;;4941355;29;20293;-81
2021/01/05 12:49:27;;;;;;;16.10;11.35;;;3.50;85.10;;;;;;4942892;29;20227;-80
2021/01/05 12:51:54;;;;;;;17.02;11.55;;;3.40;84.10;;;;;;4942205;29;20230;-78
2021/01/05 12:54:22;;;;;;;18.15;12.35;;;3.40;84.30;;;;;;4940869;29;20200;-78
2021/01/05 12:56:49;;;;;;;18.30;11.30;;;3.20;86.10;;;;;;4942444;29;20212;-78